createdAt,value
2023-02-11T00:01:38.386Z,101571.81
2023-02-11T00:04:07.560Z,101568.90
2023-02-11T00:06:36.549Z,101567.23
2023-02-11T00:09:06.384Z,101556.36
2023-02-11T00:11:35.249Z,101556.20
2023-02-11T00:14:08.684Z,101549.98
2023-02-11T00:16:37.403Z,101552.19
2023-02-11T00:19:06.888Z,101550.17
2023-02-11T00:21:35.562Z,101548.60
2023-02-11T00:24:05.147Z,101549.27
2023-02-11T00:26:35.805Z,101550.80
2023-02-11T00:29:05.319Z,101547.63
2023-02-11T00:31:34.742Z,101547.98
2023-02-11T00:34:03.450Z,101549.95
2023-02-11T00:36:32.183Z,101544.70
2023-02-11T00:39:01.280Z,101542.01
2023-02-11T00:41:30.553Z,101541.08
2023-02-11T00:44:02.924Z,101538.77
2023-02-11T00:46:31.754Z,101540.25
2023-02-11T00:49:01.052Z,101538.96
2023-02-11T00:51:29.809Z,101544.92
2023-02-11T00:53:58.369Z,101540.58
2023-02-11T00:56:27.604Z,101539.36
2023-02-11T00:58:58.307Z,101535.84
2023-02-11T01:01:27.620Z,101529.10
2023-02-11T01:03:56.585Z,101526.02
2023-02-11T01:06:25.431Z,101527.28
2023-02-11T01:08:54.070Z,101526.98
2023-02-11T01:11:23.051Z,101525.64
2023-02-11T01:13:51.844Z,101522.50
2023-02-11T01:16:21.736Z,101520.32
2023-02-11T01:18:50.670Z,101516.46
2023-02-11T01:21:19.615Z,101510.91
2023-02-11T01:23:48.345Z,101506.77
2023-02-11T01:26:17.476Z,101508.23
2023-02-11T01:28:46.184Z,101505.87
2023-02-11T01:31:15.539Z,101500.58
2023-02-11T01:33:44.298Z,101498.98
2023-02-11T01:36:13.355Z,101502.63
2023-02-11T01:38:42.108Z,101493.55
2023-02-11T01:41:13.428Z,101495.48
2023-02-11T01:43:49.781Z,101499.79
2023-02-11T01:46:36.188Z,101501.09
2023-02-11T01:49:38.123Z,101494.67
2023-02-11T01:52:29.581Z,101490.20
2023-02-11T01:55:25.516Z,101486.94
2023-02-11T01:58:00.305Z,101485.25
2023-02-11T02:00:39.319Z,101485.27
2023-02-11T02:03:20.347Z,101479.04
2023-02-11T02:06:35.440Z,101481.45
2023-02-11T02:09:17.105Z,101489.15
2023-02-11T02:11:45.887Z,101481.20
2023-02-11T02:14:14.675Z,101485.91
2023-02-11T02:16:43.370Z,101487.23
2023-02-11T02:19:30.267Z,101491.16
2023-02-11T02:22:33.053Z,101486.96
2023-02-11T02:25:26.658Z,101488.33
2023-02-11T02:28:39.951Z,101488.81
2023-02-11T02:31:47.542Z,101484.27
2023-02-11T02:34:47.059Z,101483.19
2023-02-11T02:37:52.265Z,101483.54
2023-02-11T02:40:38.392Z,101479.10
2023-02-11T02:43:10.300Z,101485.90
2023-02-11T02:45:39.069Z,101483.77
2023-02-11T02:48:07.831Z,101482.84
2023-02-11T02:50:38.408Z,101482.93
2023-02-11T02:53:32.577Z,101486.60
2023-02-11T02:56:35.944Z,101486.19
2023-02-11T02:59:27.772Z,101492.83
2023-02-11T03:02:16.217Z,101486.95
2023-02-11T03:05:05.289Z,101485.73
2023-02-11T03:08:10.800Z,101487.60
2023-02-11T03:10:45.787Z,101487.95
2023-02-11T03:13:17.754Z,101483.73
2023-02-11T03:15:53.358Z,101474.50
2023-02-11T03:18:26.878Z,101477.14
2023-02-11T03:20:57.201Z,101474.54
2023-02-11T03:23:55.938Z,101473.04
2023-02-11T03:26:43.224Z,101475.70
2023-02-11T03:29:55.344Z,101473.63
2023-02-11T03:32:37.137Z,101465.41
2023-02-11T03:35:36.309Z,101468.25
2023-02-11T03:38:16.184Z,101465.39
2023-02-11T03:40:46.185Z,101463.30
2023-02-11T03:43:24.430Z,101459.56
2023-02-11T03:45:54.688Z,101468.13
2023-02-11T03:48:32.308Z,101471.02
2023-02-11T03:51:06.832Z,101471.24
2023-02-11T03:53:38.993Z,101471.66
2023-02-11T03:56:14.847Z,101467.95
2023-02-11T03:58:46.407Z,101467.20
2023-02-11T04:01:15.762Z,101464.28
2023-02-11T04:03:44.492Z,101464.39
2023-02-11T04:06:13.171Z,101463.67
2023-02-11T04:08:41.852Z,101461.59
2023-02-11T04:11:10.671Z,101458.51
2023-02-11T04:13:39.365Z,101454.41
2023-02-11T04:16:08.298Z,101454.42
2023-02-11T04:18:36.905Z,101448.45
2023-02-11T04:21:06.426Z,101445.65
2023-02-11T04:23:35.204Z,101451.64
2023-02-11T04:26:04.524Z,101445.08
2023-02-11T04:28:33.309Z,101444.43
2023-02-11T04:31:02.450Z,101450.20
2023-02-11T04:33:31.170Z,101453.12
2023-02-11T04:35:59.960Z,101445.02
2023-02-11T04:38:28.745Z,101436.66
2023-02-11T04:40:58.509Z,101432.05
2023-02-11T04:43:27.261Z,101429.90
2023-02-11T04:45:59.225Z,101427.13
2023-02-11T04:48:28.010Z,101424.22
2023-02-11T04:50:56.796Z,101417.75
2023-02-11T04:53:25.392Z,101414.77
2023-02-11T04:55:54.159Z,101414.14
2023-02-11T04:58:23.043Z,101413.09
2023-02-11T05:00:51.762Z,101411.38
2023-02-11T05:03:20.293Z,101413.23
2023-02-11T05:05:49.151Z,101411.40
2023-02-11T05:08:18.138Z,101412.15
2023-02-11T05:10:48.321Z,101405.91
2023-02-11T05:13:16.997Z,101396.78
2023-02-11T05:15:45.921Z,101395.53
2023-02-11T05:18:17.393Z,101394.40
2023-02-11T05:20:46.066Z,101398.34
2023-02-11T05:23:14.813Z,101394.86
2023-02-11T05:25:43.603Z,101395.47
2023-02-11T05:28:12.422Z,101391.28
2023-02-11T05:30:41.265Z,101390.18
2023-02-11T05:33:10.067Z,101389.33
2023-02-11T05:35:38.959Z,101391.67
2023-02-11T05:38:07.718Z,101388.43
2023-02-11T05:40:37.176Z,101386.66
2023-02-11T05:43:06.071Z,101391.43
2023-02-11T05:45:35.295Z,101396.65
2023-02-11T05:48:04.334Z,101393.98
2023-02-11T05:50:32.885Z,101393.23
2023-02-11T05:53:01.639Z,101396.11
2023-02-11T05:55:30.395Z,101399.41
2023-02-11T05:57:59.176Z,101400.58
2023-02-11T06:00:28.180Z,101401.88
2023-02-11T06:02:56.890Z,101393.45
2023-02-11T06:05:25.851Z,101399.66
2023-02-11T06:07:54.534Z,101400.25
2023-02-11T06:10:23.147Z,101400.52
2023-02-11T06:12:51.693Z,101399.95
2023-02-11T06:15:20.557Z,101394.36
2023-02-11T06:17:49.094Z,101399.17
2023-02-11T06:20:18.063Z,101391.45
2023-02-11T06:22:47.184Z,101392.13
2023-02-11T06:25:16.151Z,101400.45
2023-02-11T06:27:44.743Z,101396.48
2023-02-11T06:30:14.765Z,101394.27
2023-02-11T06:32:45.484Z,101395.09
2023-02-11T06:35:15.062Z,101397.30
2023-02-11T06:37:44.012Z,101396.06
2023-02-11T06:40:13.492Z,101401.52
2023-02-11T06:42:42.172Z,101402.84
2023-02-11T06:45:13.262Z,101406.36
2023-02-11T06:47:42.292Z,101403.29
2023-02-11T06:50:14.724Z,101402.09
2023-02-11T06:52:43.510Z,101401.63
2023-02-11T06:55:12.233Z,101403.63
2023-02-11T06:57:40.981Z,101403.70
2023-02-11T07:00:10.606Z,101399.77
2023-02-11T07:02:39.053Z,101402.26
2023-02-11T07:05:08.337Z,101394.39
2023-02-11T07:07:37.482Z,101395.17
2023-02-11T07:10:06.975Z,101395.55
2023-02-11T07:12:35.582Z,101388.45
2023-02-11T07:15:04.922Z,101384.83
2023-02-11T07:17:36.168Z,101382.59
2023-02-11T07:20:05.261Z,101387.00
2023-02-11T07:22:35.062Z,101387.36
2023-02-11T07:25:04.628Z,101385.09
2023-02-11T07:27:33.573Z,101387.90
2023-02-11T07:30:02.174Z,101387.10
2023-02-11T07:32:30.841Z,101387.96
2023-02-11T07:34:59.391Z,101383.33
2023-02-11T07:37:28.425Z,101378.77
2023-02-11T07:39:58.215Z,101377.13
2023-02-11T07:42:26.922Z,101374.45
2023-02-11T07:44:55.595Z,101379.26
2023-02-11T07:47:24.093Z,101381.71
2023-02-11T07:49:56.158Z,101376.56
2023-02-11T07:52:25.238Z,101371.68
2023-02-11T07:54:54.023Z,101362.86
2023-02-11T07:57:22.666Z,101353.80
2023-02-11T07:59:51.191Z,101355.73
2023-02-11T08:02:19.907Z,101352.64
2023-02-11T08:04:48.541Z,101349.91
2023-02-11T08:07:18.972Z,101349.35
2023-02-11T08:09:47.817Z,101338.52
2023-02-11T08:12:16.385Z,101326.70
2023-02-11T08:14:44.938Z,101326.40
2023-02-11T08:17:13.622Z,101325.38
2023-02-11T08:19:42.236Z,101322.60
2023-02-11T08:22:10.808Z,101311.29
2023-02-11T08:24:39.387Z,101311.40
2023-02-11T08:27:08.004Z,101304.70
2023-02-11T08:29:36.741Z,101297.45
2023-02-11T08:32:05.576Z,101289.95
2023-02-11T08:34:34.660Z,101287.88
2023-02-11T08:37:03.307Z,101282.20
2023-02-11T08:39:31.906Z,101278.52
2023-02-11T08:42:00.680Z,101280.09
2023-02-11T08:44:30.207Z,101277.45
2023-02-11T08:46:58.795Z,101274.39
2023-02-11T08:49:27.363Z,101273.40
2023-02-11T08:51:56.654Z,101270.13
2023-02-11T08:54:25.398Z,101268.66
2023-02-11T08:56:53.999Z,101266.95
2023-02-11T08:59:23.015Z,101267.38
2023-02-11T09:01:51.858Z,101262.58
2023-02-11T09:04:20.564Z,101264.45
2023-02-11T09:06:49.338Z,101259.30
2023-02-11T09:09:18.119Z,101257.28
2023-02-11T09:11:46.854Z,101252.96
2023-02-11T09:14:23.049Z,101248.27
2023-02-11T09:16:52.269Z,101244.16
2023-02-11T09:19:21.641Z,101239.13
2023-02-11T09:21:50.606Z,101234.10
2023-02-11T09:24:19.729Z,101230.05
2023-02-11T09:26:49.839Z,101228.38
2023-02-11T09:29:18.551Z,101217.01
2023-02-11T09:31:47.237Z,101212.10
2023-02-11T09:34:16.324Z,101203.58
2023-02-11T09:36:45.085Z,101197.09
2023-02-11T09:39:20.620Z,101184.34
2023-02-11T09:42:32.832Z,101173.73
2023-02-11T09:45:02.977Z,101173.21
2023-02-11T09:47:36.248Z,101181.14
2023-02-11T09:50:15.255Z,101180.77
2023-02-11T09:53:03.912Z,101165.38
2023-02-11T09:55:42.207Z,101165.04
2023-02-11T09:58:20.956Z,101161.95
2023-02-11T10:01:19.425Z,101148.77
2023-02-11T10:04:12.543Z,101143.56
2023-02-11T10:06:54.617Z,101139.13
2023-02-11T10:09:48.810Z,101128.27
2023-02-11T10:12:36.015Z,101123.48
2023-02-11T10:15:35.595Z,101123.15
2023-02-11T10:18:38.237Z,101113.36
2023-02-11T10:21:15.968Z,101101.29
2023-02-11T10:23:52.159Z,101094.52
2023-02-11T10:26:20.964Z,101084.39
2023-02-11T10:28:54.689Z,101078.29
2023-02-11T10:31:29.015Z,101079.06
2023-02-11T10:34:12.998Z,101074.33
2023-02-11T10:36:44.465Z,101064.00
2023-02-11T10:39:23.305Z,101059.13
2023-02-11T10:41:58.153Z,101050.38
2023-02-11T10:44:44.348Z,101044.49
2023-02-11T10:47:25.703Z,101033.67
2023-02-11T10:49:54.489Z,101024.11
2023-02-11T10:52:26.645Z,101019.52
2023-02-11T10:55:25.596Z,101018.66
2023-02-11T10:58:03.528Z,101020.58
2023-02-11T11:00:43.686Z,101007.86
2023-02-11T11:03:25.684Z,101001.36
2023-02-11T11:06:07.184Z,100991.14
2023-02-11T11:08:48.361Z,100984.38
2023-02-11T11:11:23.217Z,100983.54
2023-02-11T11:13:54.730Z,100979.05
2023-02-11T11:16:26.960Z,100978.36
2023-02-11T11:19:07.926Z,100975.90
2023-02-11T11:21:50.711Z,100969.85
2023-02-11T11:24:22.355Z,100964.95
2023-02-11T11:26:57.627Z,100964.69
2023-02-11T11:29:48.633Z,100961.02
2023-02-11T11:32:27.526Z,100955.81
2023-02-11T11:35:21.212Z,100948.43
2023-02-11T11:37:56.809Z,100943.55
2023-02-11T11:40:29.933Z,100937.85
2023-02-11T11:43:14.489Z,100925.97
2023-02-11T11:46:00.510Z,100914.98
2023-02-11T11:48:37.886Z,100912.26
2023-02-11T11:51:11.811Z,100895.95
2023-02-11T11:53:58.822Z,100887.67
2023-02-11T11:56:35.118Z,100880.31
2023-02-11T11:59:14.054Z,100871.10
2023-02-11T12:02:28.768Z,100855.73
2023-02-11T12:05:36.459Z,100843.35
2023-02-11T12:08:23.667Z,100843.01
2023-02-11T12:10:55.112Z,100836.89
2023-02-11T12:13:37.639Z,100835.13
2023-02-11T12:16:39.639Z,100833.04
2023-02-11T12:19:33.169Z,100827.63
2023-02-11T12:22:10.164Z,100833.26
2023-02-11T12:25:06.096Z,100832.30
2023-02-11T12:28:16.489Z,100827.85
2023-02-11T12:31:28.031Z,100821.80
2023-02-11T12:34:35.828Z,100821.95
2023-02-11T12:37:32.360Z,100822.88
2023-02-11T12:40:19.212Z,100816.92
2023-02-11T12:43:18.200Z,100828.86
2023-02-11T12:46:33.622Z,100831.75
2023-02-11T12:49:02.179Z,100824.68
2023-02-11T12:52:31.397Z,100818.95
2023-02-11T12:55:16.377Z,100804.58
2023-02-11T12:57:46.772Z,100801.63
2023-02-11T13:00:52.075Z,100797.39
2023-02-11T13:03:48.383Z,100793.73
2023-02-11T13:06:28.722Z,100788.87
2023-02-11T13:09:05.884Z,100785.71
2023-02-11T13:11:52.270Z,100781.30
2023-02-11T13:14:41.235Z,100766.59
2023-02-11T13:17:48.005Z,100753.38
2023-02-11T13:20:36.654Z,100739.50
2023-02-11T13:23:22.445Z,100739.48
2023-02-11T13:26:04.441Z,100744.84
2023-02-11T13:29:01.176Z,100743.34
2023-02-11T13:31:30.423Z,100739.05
2023-02-11T13:33:59.207Z,100738.40
2023-02-11T13:36:32.961Z,100739.98
2023-02-11T13:39:06.791Z,100737.18
2023-02-11T13:41:42.015Z,100740.34
2023-02-11T13:44:10.528Z,100744.02
2023-02-11T13:47:05.203Z,100739.48
2023-02-11T13:49:49.372Z,100728.23
2023-02-11T13:52:31.367Z,100723.40
2023-02-11T13:55:23.034Z,100715.76
2023-02-11T13:58:06.847Z,100715.14
2023-02-11T14:00:35.414Z,100716.55
2023-02-11T14:03:31.369Z,100714.16
2023-02-11T14:06:27.436Z,100710.18
2023-02-11T14:09:09.677Z,100702.14
2023-02-11T14:12:14.778Z,100693.83
2023-02-11T14:15:21.257Z,100695.23
2023-02-11T14:17:50.166Z,100691.08
2023-02-11T14:20:44.238Z,100688.30
2023-02-11T14:23:27.448Z,100689.79
2023-02-11T14:26:25.930Z,100689.73
2023-02-11T14:29:01.790Z,100685.63
2023-02-11T14:31:55.255Z,100683.59
2023-02-11T14:34:44.766Z,100688.54
2023-02-11T14:37:50.638Z,100689.46
2023-02-11T14:40:34.930Z,100683.36
2023-02-11T14:43:27.217Z,100677.86
2023-02-11T14:45:59.141Z,100668.20
2023-02-11T14:48:32.732Z,100673.02
2023-02-11T14:51:26.963Z,100673.67
2023-02-11T14:54:17.420Z,100667.02
2023-02-11T14:56:47.034Z,100661.48
2023-02-11T14:59:21.941Z,100664.30
2023-02-11T15:01:54.960Z,100663.21
2023-02-11T15:04:31.933Z,100661.32
2023-02-11T15:07:07.603Z,100658.48
2023-02-11T15:09:50.846Z,100663.18
2023-02-11T15:12:24.945Z,100658.66
2023-02-11T15:14:58.922Z,100658.01
2023-02-11T15:17:32.423Z,100654.74
2023-02-11T15:20:02.836Z,100653.32
2023-02-11T15:22:37.101Z,100649.16
2023-02-11T15:25:20.649Z,100648.61
2023-02-11T15:27:53.613Z,100648.35
2023-02-11T15:30:22.199Z,100647.94
2023-02-11T15:33:00.596Z,100640.48
2023-02-11T15:35:41.293Z,100636.45
2023-02-11T15:38:13.922Z,100641.33
2023-02-11T15:41:01.127Z,100640.69
2023-02-11T15:43:48.185Z,100638.03
2023-02-11T15:46:21.523Z,100635.90
2023-02-11T15:48:53.431Z,100632.09
2023-02-11T15:51:29.823Z,100631.27
2023-02-11T15:54:16.682Z,100632.67
2023-02-11T15:56:55.736Z,100632.15
2023-02-11T15:59:30.786Z,100626.15
2023-02-11T16:02:16.435Z,100626.08
2023-02-11T16:05:08.072Z,100627.53
2023-02-11T16:07:49.893Z,100628.56
2023-02-11T16:10:36.386Z,100626.20
2023-02-11T16:13:07.894Z,100624.77
2023-02-11T16:15:57.431Z,100620.12
2023-02-11T16:18:38.454Z,100617.79
2023-02-11T16:21:18.553Z,100617.48
2023-02-11T16:23:56.549Z,100617.87
2023-02-11T16:26:30.748Z,100624.14
2023-02-11T16:29:07.299Z,100624.84
2023-02-11T16:31:39.242Z,100621.84
2023-02-11T16:34:25.702Z,100615.61
2023-02-11T16:36:54.279Z,100604.21
2023-02-11T16:39:23.138Z,100603.25
2023-02-11T16:41:52.780Z,100600.36
2023-02-11T16:44:21.300Z,100601.46
2023-02-11T16:46:50.427Z,100604.81
2023-02-11T16:49:29.154Z,100594.36
2023-02-11T16:52:02.153Z,100594.63
2023-02-11T16:54:31.019Z,100592.21
2023-02-11T16:56:59.707Z,100598.30
2023-02-11T16:59:28.698Z,100585.98
2023-02-11T17:01:58.363Z,100582.05
2023-02-11T17:04:30.486Z,100573.17
2023-02-11T17:06:59.641Z,100572.16
2023-02-11T17:09:30.864Z,100566.59
2023-02-11T17:12:00.470Z,100568.54
2023-02-11T17:14:29.661Z,100571.40
2023-02-11T17:16:58.506Z,100572.80
2023-02-11T17:19:27.061Z,100572.98
2023-02-11T17:21:55.726Z,100565.67
2023-02-11T17:24:24.254Z,100564.21
2023-02-11T17:26:52.844Z,100567.27
2023-02-11T17:29:24.738Z,100564.08
2023-02-11T17:31:54.424Z,100562.09
2023-02-11T17:34:23.978Z,100561.41
2023-02-11T17:36:52.514Z,100559.85
2023-02-11T17:39:21.383Z,100551.16
2023-02-11T17:41:49.971Z,100554.79
2023-02-11T17:44:18.694Z,100551.14
2023-02-11T17:46:47.203Z,100543.50
2023-02-11T17:49:16.648Z,100540.49
2023-02-11T17:51:45.398Z,100534.25
2023-02-11T17:54:19.513Z,100537.05
2023-02-11T17:56:51.006Z,100532.97
2023-02-11T17:59:21.034Z,100533.48
2023-02-11T18:01:49.605Z,100539.84
2023-02-11T18:04:20.137Z,100543.99
2023-02-11T18:06:48.838Z,100539.36
2023-02-11T18:09:17.498Z,100539.42
2023-02-11T18:11:46.412Z,100534.14
2023-02-11T18:14:14.984Z,100539.95
2023-02-11T18:16:46.080Z,100546.94
2023-02-11T18:19:14.720Z,100549.06
2023-02-11T18:21:43.339Z,100549.34
2023-02-11T18:24:11.927Z,100548.92
2023-02-11T18:26:40.573Z,100548.59
2023-02-11T18:29:09.160Z,100542.08
2023-02-11T18:31:38.251Z,100541.41
2023-02-11T18:34:10.841Z,100532.48
2023-02-11T18:36:39.655Z,100524.92
2023-02-11T18:39:08.497Z,100518.38
2023-02-11T18:41:37.270Z,100522.41
2023-02-11T18:44:05.892Z,100531.46
2023-02-11T18:46:34.496Z,100529.68
2023-02-11T18:49:03.222Z,100532.23
2023-02-11T18:51:32.695Z,100527.75
2023-02-11T18:54:02.148Z,100523.06
2023-02-11T18:56:30.814Z,100515.42
2023-02-11T18:59:01.531Z,100529.81
2023-02-11T19:01:33.874Z,100523.93
2023-02-11T19:04:05.343Z,100505.91
2023-02-11T19:06:38.178Z,100486.55
2023-02-11T19:09:11.494Z,100493.19
2023-02-11T19:11:50.686Z,100495.27
2023-02-11T19:14:26.290Z,100500.31
2023-02-11T19:16:58.789Z,100504.70
2023-02-11T19:19:31.924Z,100500.84
2023-02-11T19:22:01.961Z,100496.75
2023-02-11T19:24:31.071Z,100496.86
2023-02-11T19:27:03.782Z,100499.58
2023-02-11T19:29:35.437Z,100498.38
2023-02-11T19:32:06.454Z,100501.77
2023-02-11T19:34:41.435Z,100506.00
2023-02-11T19:37:13.048Z,100508.65
2023-02-11T19:39:43.076Z,100509.29
2023-02-11T19:42:12.358Z,100506.84
2023-02-11T19:44:41.179Z,100509.65
2023-02-11T19:47:10.899Z,100515.90
2023-02-11T19:49:39.770Z,100519.80
2023-02-11T19:52:08.463Z,100527.11
2023-02-11T19:54:38.689Z,100527.08
2023-02-11T19:57:07.343Z,100528.77
2023-02-11T19:59:35.892Z,100525.98
2023-02-11T20:02:04.740Z,100517.85
2023-02-11T20:04:33.509Z,100517.18
2023-02-11T20:07:02.184Z,100514.15
2023-02-11T20:09:31.988Z,100514.35
2023-02-11T20:12:00.824Z,100512.93
2023-02-11T20:14:29.393Z,100514.66
2023-02-11T20:16:58.078Z,100517.11
2023-02-11T20:19:28.212Z,100526.02
2023-02-11T20:21:57.060Z,100523.89
2023-02-11T20:24:26.575Z,100524.97
2023-02-11T20:26:58.236Z,100522.91
2023-02-11T20:29:27.578Z,100517.67
2023-02-11T20:31:56.316Z,100514.49
2023-02-11T20:34:25.646Z,100508.87
2023-02-11T20:36:55.076Z,100508.55
2023-02-11T20:39:25.437Z,100510.32
2023-02-11T20:41:54.888Z,100507.41
2023-02-11T20:44:24.293Z,100505.67
2023-02-11T20:46:54.562Z,100497.59
2023-02-11T20:49:25.183Z,100484.83
2023-02-11T20:51:54.463Z,100477.96
2023-02-11T20:54:24.507Z,100467.57
2023-02-11T20:56:54.172Z,100472.88
2023-02-11T20:59:22.847Z,100464.86
2023-02-11T21:01:55.558Z,100459.95
2023-02-11T21:04:28.922Z,100469.26
2023-02-11T21:07:01.417Z,100467.60
2023-02-11T21:09:33.712Z,100470.64
2023-02-11T21:12:03.222Z,100472.38
2023-02-11T21:14:31.940Z,100470.48
2023-02-11T21:17:00.735Z,100469.23
2023-02-11T21:19:29.624Z,100461.42
2023-02-11T21:22:00.898Z,100471.08
2023-02-11T21:24:31.206Z,100476.84
2023-02-11T21:26:59.986Z,100476.26
2023-02-11T21:29:29.216Z,100480.67
2023-02-11T21:31:57.958Z,100474.73
2023-02-11T21:34:26.765Z,100466.67
2023-02-11T21:36:55.447Z,100471.54
2023-02-11T21:39:24.085Z,100473.93
2023-02-11T21:41:52.819Z,100466.86
2023-02-11T21:44:21.506Z,100477.45
2023-02-11T21:46:50.351Z,100484.36
2023-02-11T21:49:20.438Z,100481.96
2023-02-11T21:51:49.103Z,100483.41
2023-02-11T21:54:19.112Z,100482.45
2023-02-11T21:56:51.866Z,100485.23
2023-02-11T21:59:20.581Z,100484.15
2023-02-11T22:01:49.363Z,100484.30
2023-02-11T22:04:18.216Z,100484.38
2023-02-11T22:06:47.044Z,100484.54
2023-02-11T22:09:16.052Z,100484.80
2023-02-11T22:11:44.926Z,100484.85
2023-02-11T22:14:13.533Z,100485.70
2023-02-11T22:16:45.860Z,100481.38
2023-02-11T22:19:15.245Z,100480.15
2023-02-11T22:21:43.970Z,100477.89
2023-02-11T22:24:12.794Z,100477.62
2023-02-11T22:26:41.556Z,100483.02
2023-02-11T22:29:11.376Z,100481.98
2023-02-11T22:31:40.145Z,100486.27
2023-02-11T22:34:08.826Z,100485.94
2023-02-11T22:36:40.624Z,100489.75
2023-02-11T22:39:15.977Z,100488.89
2023-02-11T22:41:46.590Z,100497.60
2023-02-11T22:44:20.240Z,100498.06
2023-02-11T22:46:49.293Z,100496.34
2023-02-11T22:49:19.902Z,100496.47
2023-02-11T22:51:48.814Z,100498.38
2023-02-11T22:54:19.360Z,100501.46
2023-02-11T22:56:51.560Z,100498.66
2023-02-11T22:59:20.880Z,100497.55
2023-02-11T23:01:50.424Z,100494.21
2023-02-11T23:04:19.578Z,100494.45
2023-02-11T23:06:48.182Z,100493.84
2023-02-11T23:09:17.350Z,100493.93
2023-02-11T23:11:47.169Z,100490.77
2023-02-11T23:14:15.952Z,100486.40
2023-02-11T23:16:44.807Z,100485.23
2023-02-11T23:19:13.672Z,100477.14
2023-02-11T23:21:42.518Z,100481.64
2023-02-11T23:24:14.202Z,100480.23
2023-02-11T23:26:44.497Z,100475.98
2023-02-11T23:29:13.593Z,100469.09
2023-02-11T23:31:45.464Z,100471.27
2023-02-11T23:34:17.413Z,100463.39
2023-02-11T23:36:46.343Z,100458.64
2023-02-11T23:39:16.437Z,100460.38
2023-02-11T23:41:46.000Z,100455.32
2023-02-11T23:44:14.623Z,100450.23
2023-02-11T23:46:43.528Z,100447.19
2023-02-11T23:49:12.236Z,100444.73
2023-02-11T23:51:40.891Z,100447.45
2023-02-11T23:54:14.085Z,100452.75
2023-02-11T23:56:42.877Z,100452.20
2023-02-11T23:59:11.967Z,100456.20
